Terminal Aerodrome Forecast
Issued by NWS

Current Version | Previous Version | Text Only | Print | Product List | Glossary On
Versions: 1 2 3 4 5 6 7 8 9 10 11 12 13 14 15 16 17
026
FTUS46 KHNX 101120
TAFMER
TAF
KMER 101120Z 1012/1112 00000KT 1SM BR SKC
     FM101800 VRB03KT 4SM HZ SKC
     FM110000 33006KT P6SM BKN250=

USA.gov is the U.S. government's official web portal to all federal, state and local government web resources and services.